Home > Products > Valid Products > TAF

000
FTUS45 KSLC 231730
TAFENV
TAF
KENV 231730Z 2318/2418 12007KT P6SM SCT120 BKN200
     FM240300 VRB05KT P6SM SCT200
      AMD LTD TO CLD VIS AND WIND=



000
FTUS45 KSLC 231730
TAFLGU
TAF
KLGU 231730Z 2318/2418 VRB04KT P6SM SCT120 BKN200=



000
FTUS45 KSLC 231730
TAFBCE
TAF
KBCE 231730Z 2318/2418 16009KT P6SM FEW100 SCT200
     FM240300 27007KT P6SM SKC=



000
FTUS45 KSLC 231730
TAFCDC
TAF
KCDC 231730Z 2318/2418 22009KT P6SM SCT200
     FM231900 22010G16KT P6SM SCT200
     FM240100 21008KT P6SM SCT200
     FM240300 VRB04KT P6SM SKC=



000
FTUS45 KSLC 231730
TAFPVU
TAF
KPVU 231730Z 2318/2418 VRB05KT P6SM SCT200
      AMD LTD TO CLD VIS AND WIND=



000
FTUS45 KSLC 231730
TAFOGD
TAF
KOGD 231730Z 2318/2418 VRB04KT P6SM BKN200
     FM231900 28007KT P6SM BKN200
     FM240300 17007KT P6SM SCT200=



000
FTUS45 KSLC 231730
TAFSGU
TAF
KSGU 231730Z 2318/2418 VRB05KT P6SM SKC
      AMD LTD TO CLD VIS AND WIND=



000
FTUS45 KSLC 231730
TAFSLC
TAF
KSLC 231730Z 2318/2424 15004KT P6SM SCT150 BKN200
     FM231900 34007KT P6SM SCT120 BKN200
     FM240300 16008KT P6SM FEW120 SCT200
     FM241700 18011G18KT P6SM SKC=



000
FTUS45 KSLC 231459 AAA
TAFSLC
TAF AMD
KSLC 231459Z 2315/2418 15007KT P6SM SCT150 BKN200
     FM232100 33007KT P6SM SCT120 BKN200
     FM240300 16007KT P6SM SCT120 BKN200=



000
FTUS45 KSLC 231459 AAA
TAFSLC
TAF AMD
KSLC 231459Z 2315/2418 15007KT P6SM SCT150 BKN200
     FM232100 33007KT P6SM SCT120 BKN200
     FM240300 16007KT P6SM SCT120 BKN200=



000
FTUS45 KSLC 231120
TAFENV
TAF
KENV 231120Z 2312/2412 VRB05KT P6SM SCT120 SCT200
     FM231700 12007KT P6SM BKN200
     FM240300 VRB05KT P6SM BKN200
      AMD LTD TO CLD VIS AND WIND=



000
FTUS45 KSLC 231120
TAFPVU
TAF
KPVU 231120Z 2312/2412 VRB04KT P6SM SCT200
      AMD LTD TO CLD VIS AND WIND=



000
FTUS45 KSLC 231120
TAFSLC
TAF
KSLC 231120Z 2312/2418 15007KT P6SM BKN200
     FM232000 33007KT P6SM SCT120 BKN200
     FM240300 16007KT P6SM SCT120 BKN200=



000
FTUS45 KSLC 231120
TAFBCE
TAF
KBCE 231120Z 2312/2412 27007KT P6SM SCT200
     FM231500 14007KT P6SM FEW100 SCT200
     FM240300 27007KT P6SM SCT200=



000
FTUS45 KSLC 231120
TAFOGD
TAF
KOGD 231120Z 2312/2412 17007KT P6SM BKN200
     FM232000 22007KT P6SM BKN200
     FM240300 17007KT P6SM BKN200=



000
FTUS45 KSLC 231120
TAFLGU
TAF
KLGU 231120Z 2312/2412 VRB04KT P6SM SCT120 SCT200=



000
FTUS45 KSLC 231120
TAFSGU
TAF
KSGU 231120Z 2312/2412 VRB05KT P6SM SKC
      AMD LTD TO CLD VIS AND WIND=



000
FTUS45 KSLC 231120
TAFCDC
TAF
KCDC 231120Z 2312/2412 VRB03KT P6SM SKC
     FM231800 22010G16KT P6SM SCT200
     FM240300 VRB03KT P6SM SCT200=



000
FTUS45 KSLC 230907 AAA
TAFSLC
TAF AMD
KSLC 230907Z 2309/2412 15007KT P6SM BKN200
     FM232000 33007KT P6SM SCT120 BKN200
     FM240300 16007KT P6SM SCT120 BKN200=



000
FTUS45 KSLC 230524
TAFENV
TAF
KENV 230524Z 2306/2406 VRB05KT P6SM SCT120 SCT200
     FM231700 12007KT P6SM BKN200
     FM240300 VRB05KT P6SM BKN200
      AMD LTD TO CLD VIS AND WIND=



000
FTUS45 KSLC 230524
TAFCDC
TAF
KCDC 230524Z 2306/2406 VRB03KT P6SM SKC
     FM231800 22010G16KT P6SM SCT200
     FM240300 VRB03KT P6SM SCT200=



000
FTUS45 KSLC 230524
TAFSLC
TAF
KSLC 230524Z 2306/2412 15007KT P6SM BKN200
     FM232000 33007KT P6SM SCT120 BKN200
     FM240300 16007KT P6SM SCT120 BKN200=



000
FTUS45 KSLC 230524
TAFPVU
TAF
KPVU 230524Z 2306/2406 VRB04KT P6SM SCT200
      AMD LTD TO CLD VIS AND WIND=



000
FTUS45 KSLC 230524
TAFBCE
TAF
KBCE 230524Z 2306/2406 27007KT P6SM SCT200
     FM231500 14007KT P6SM FEW100 SCT200
     FM240300 27007KT P6SM SCT200=



000
FTUS45 KSLC 230524
TAFLGU
TAF
KLGU 230524Z 2306/2406 VRB04KT P6SM SCT120 SCT200=



000
FTUS45 KSLC 230524
TAFSGU
TAF
KSGU 230524Z 2306/2406 VRB05KT P6SM SKC
      AMD LTD TO CLD VIS AND WIND=



000
FTUS45 KSLC 230524
TAFOGD
TAF
KOGD 230524Z 2306/2406 17007KT P6SM BKN200
     FM232000 22007KT P6SM BKN200=



000
FTUS45 KSLC 230324 AAB
TAFSLC
TAF AMD
KSLC 230324Z 2303/2406 15007KT P6SM BKN200
     FM232000 33007KT P6SM SCT120 BKN200=



000
FTUS45 KSLC 222328
TAFENV
TAF
KENV 222328Z 2300/2324 VRB05KT P6SM SCT200
     FM231700 12007KT P6SM BKN200
      AMD LTD TO CLD VIS AND WIND=



000
FTUS45 KSLC 222328
TAFLGU
TAF
KLGU 222328Z 2300/2324 VRB04KT P6SM SCT200=



000
FTUS45 KSLC 222328
TAFSLC
TAF
KSLC 222328Z 2300/2406 33006KT P6SM FEW120 BKN200
     FM230300 15007KT P6SM BKN200
     FM232000 33007KT P6SM SCT120 BKN200=



000
FTUS45 KSLC 222328
TAFOGD
TAF
KOGD 222328Z 2300/2324 VRB05KT P6SM SCT200
     FM230300 17007KT P6SM BKN200=



000
FTUS45 KSLC 222328
TAFPVU
TAF
KPVU 222328Z 2300/2324 VRB04KT P6SM SCT200
      AMD LTD TO CLD VIS AND WIND=



000
FTUS45 KSLC 222328
TAFBCE
TAF
KBCE 222328Z 2300/2324 VRB04KT P6SM SCT070 SCT200
     FM231500 14007KT P6SM FEW100 SCT200=



000
FTUS45 KSLC 222328
TAFCDC
TAF
KCDC 222328Z 2300/2324 VRB03KT P6SM SKC
     FM231800 22010G16KT P6SM SCT200=



000
FTUS45 KSLC 222328
TAFSGU
TAF
KSGU 222328Z 2300/2324 VRB05KT P6SM SKC
      AMD LTD TO CLD VIS AND WIND=



000
FTUS45 KSLC 222129 AAA
TAFBCE
TAF AMD
KBCE 222129Z 2221/2318 14009KT P6SM FEW100 SCT200
     FM230200 27007KT P6SM FEW100 SCT200=



000
FTUS45 KSLC 222050 AAB
TAFSLC
TAF AMD
KSLC 222050Z 2221/2324 33006KT P6SM FEW120 SCT200
     FM230300 15007KT P6SM FEW120 SCT200
     FM232000 33007KT P6SM SCT120 BKN200=



000
FTUS45 KSLC 221723
TAFENV
TAF
KENV 221723Z 2218/2318 VRB05KT P6SM SCT200
      AMD LTD TO CLD VIS AND WIND=



000
FTUS45 KSLC 221723
TAFLGU
TAF
KLGU 221723Z 2218/2318 VRB04KT P6SM SCT120 SCT200=



000
FTUS45 KSLC 221723
TAFPVU
TAF
KPVU 221723Z 2218/2318 VRB04KT P6SM SCT120
      AMD LTD TO CLD VIS AND WIND=



000
FTUS45 KSLC 221723
TAFOGD
TAF
KOGD 221723Z 2218/2318 VRB05KT P6SM SCT120 SCT200
     FM230300 17007KT P6SM SCT120 BKN200=



000
FTUS45 KSLC 221723
TAFBCE
TAF
KBCE 221723Z 2218/2318 33009KT P6SM FEW100 SCT200
     FM230200 27007KT P6SM FEW100 SCT200=



000
FTUS45 KSLC 221723
TAFCDC
TAF
KCDC 221723Z 2218/2318 VRB05KT P6SM FEW120 SCT200=



000
FTUS45 KSLC 221723
TAFLGU
TAF
KLGU 221723Z 2218/2318 VRB04KT P6SM SCT120 SCT200=



000
FTUS45 KSLC 221723
TAFBCE
TAF
KBCE 221723Z 2218/2318 33009KT P6SM FEW100 SCT200
     FM230200 27007KT P6SM FEW100 SCT200=



000
FTUS45 KSLC 221723
TAFENV
TAF
KENV 221723Z 2218/2318 VRB05KT P6SM SCT200
      AMD LTD TO CLD VIS AND WIND=



000
FTUS45 KSLC 221723
TAFSGU
TAF
KSGU 221723Z 2218/2318 VRB05KT P6SM SCT200
      AMD LTD TO CLD VIS AND WIND=



000
FTUS45 KSLC 221723
TAFSLC
TAF
KSLC 221723Z 2218/2324 33006KT P6SM SCT120 SCT200
     FM230300 15007KT P6SM FEW120 SCT200
     FM232000 33007KT P6SM SCT120 BKN200=



000
FTUS45 KSLC 221723
TAFOGD
TAF
KOGD 221723Z 2218/2318 VRB05KT P6SM SCT120 SCT200
     FM230300 17007KT P6SM SCT120 BKN200=



000
FTUS45 KSLC 221723
TAFPVU
TAF
KPVU 221723Z 2218/2318 VRB04KT P6SM SCT120
      AMD LTD TO CLD VIS AND WIND=



000
FTUS45 KSLC 221723
TAFCDC
TAF
KCDC 221723Z 2218/2318 VRB05KT P6SM FEW120 SCT200=



000
FTUS45 KSLC 221723
TAFSLC
TAF
KSLC 221723Z 2218/2324 33006KT P6SM SCT120 SCT200
     FM230300 15007KT P6SM FEW120 SCT200
     FM232000 33007KT P6SM SCT120 BKN200=



000
FTUS45 KSLC 221723
TAFSGU
TAF
KSGU 221723Z 2218/2318 VRB05KT P6SM SCT200
      AMD LTD TO CLD VIS AND WIND=



000
FTUS45 KSLC 221457 AAA
TAFSLC
TAF AMD
KSLC 221457Z 2215/2318 15006KT P6SM SCT200
     FM221800 33006KT P6SM SCT120 BKN200
     FM230300 16006KT P6SM FEW120 SCT150=



000
FTUS45 KSLC 221120
TAFENV
TAF
KENV 221120Z 2212/2312 VRB04KT P6SM SKC
      AMD LTD TO CLD VIS AND WIND=



000
FTUS45 KSLC 221120
TAFCDC
TAF
KCDC 221120Z 2212/2312 VRB05KT P6SM SCT120=



000
FTUS45 KSLC 221120
TAFSGU
TAF
KSGU 221120Z 2212/2312 VRB04KT P6SM SKC
      AMD LTD TO CLD VIS AND WIND=



000
FTUS45 KSLC 221120
TAFLGU
TAF
KLGU 221120Z 2212/2312 VRB04KT P6SM SCT120=



000
FTUS45 KSLC 221120
TAFOGD
TAF
KOGD 221120Z 2212/2312 VRB04KT P6SM SCT120=



000
FTUS45 KSLC 221120
TAFBCE
TAF
KBCE 221120Z 2212/2312 26007KT P6SM FEW060 SCT150=



000
FTUS45 KSLC 221120
TAFPVU
TAF
KPVU 221120Z 2212/2312 VRB04KT P6SM SCT120
      AMD LTD TO CLD VIS AND WIND=



000
FTUS45 KSLC 221120
TAFSLC
TAF
KSLC 221120Z 2212/2318 15004KT P6SM SKC
     FM221800 34005KT P6SM SCT120
     FM230300 16006KT P6SM FEW120 SCT150=



000
FTUS45 KSLC 220905 AAA
TAFSLC
TAF AMD
KSLC 220905Z 2209/2312 15004KT P6SM SKC
     FM221800 34005KT P6SM SCT120
     FM230300 16006KT P6SM FEW120 SCT150=



000
FTUS45 KSLC 220520
TAFLGU
TAF
KLGU 220520Z 2206/2306 VRB04KT P6SM SCT120=



000
FTUS45 KSLC 220520
TAFOGD
TAF
KOGD 220520Z 2206/2306 VRB05KT P6SM SCT120=



000
FTUS45 KSLC 220520
TAFCDC
TAF
KCDC 220520Z 2206/2306 VRB05KT P6SM SCT120=



000
FTUS45 KSLC 220520
TAFBCE
TAF
KBCE 220520Z 2206/2306 24006KT P6SM FEW060 SCT150=



000
FTUS45 KSLC 220520
TAFPVU
TAF
KPVU 220520Z 2206/2306 VRB04KT P6SM SCT120
      AMD LTD TO CLD VIS AND WIND=



000
FTUS45 KSLC 220520
TAFSGU
TAF
KSGU 220520Z 2206/2306 VRB04KT P6SM SKC
      AMD LTD TO CLD VIS AND WIND=



000
FTUS45 KSLC 220520
TAFSLC
TAF
KSLC 220520Z 2206/2312 35010KT P6SM SCT150
     FM220900 15004KT P6SM SKC
     FM221800 34005KT P6SM SCT120
     FM230300 16006KT P6SM FEW120 SCT150=



000
FTUS45 KSLC 220520
TAFENV
TAF
KENV 220520Z 2206/2306 02009KT P6SM FEW120
     FM220900 VRB04KT P6SM SKC
      AMD LTD TO CLD VIS AND WIND=



000
FTUS45 KSLC 220520
TAFCDC
TAF
KCDC 220520Z 2206/2306 VRB05KT P6SM SCT120=



000
FTUS45 KSLC 220520
TAFBCE
TAF
KBCE 220520Z 2206/2306 24006KT P6SM FEW060 SCT150=



000
FTUS45 KSLC 220520
TAFSGU
TAF
KSGU 220520Z 2206/2306 VRB04KT P6SM SKC
      AMD LTD TO CLD VIS AND WIND=



000
FTUS45 KSLC 220520
TAFLGU
TAF
KLGU 220520Z 2206/2306 VRB04KT P6SM SCT120=



000
FTUS45 KSLC 220520
TAFOGD
TAF
KOGD 220520Z 2206/2306 VRB05KT P6SM SCT120=



000
FTUS45 KSLC 220520
TAFPVU
TAF
KPVU 220520Z 2206/2306 VRB04KT P6SM SCT120
      AMD LTD TO CLD VIS AND WIND=



000
FTUS45 KSLC 220520
TAFSLC
TAF
KSLC 220520Z 2206/2312 35010KT P6SM SCT150
     FM220900 15004KT P6SM SKC
     FM221800 34005KT P6SM SCT120
     FM230300 16006KT P6SM FEW120 SCT150=



000
FTUS45 KSLC 220520
TAFENV
TAF
KENV 220520Z 2206/2306 02009KT P6SM FEW120
     FM220900 VRB04KT P6SM SKC
      AMD LTD TO CLD VIS AND WIND=



000
FTUS45 KSLC 220348 AAB
TAFSLC
TAF AMD
KSLC 220348Z 2204/2306 35010KT P6SM SCT150
     FM220900 15004KT P6SM SKC
     FM221800 34005KT P6SM SCT120
     FM230300 16006KT P6SM FEW120 SCT150=



000
FTUS45 KSLC 220348 AAB
TAFSLC
TAF AMD
KSLC 220348Z 2204/2306 35010KT P6SM SCT150
     FM220900 15004KT P6SM SKC
     FM221800 34005KT P6SM SCT120
     FM230300 16006KT P6SM FEW120 SCT150=



000
FTUS45 KSLC 220156 AAA
TAFENV
TAF AMD
KENV 220156Z 2202/2224 02009KT P6SM FEW120
     FM220600 VRB04KT P6SM SKC
     FM221700 14006KT P6SM SCT150
      AMD LTD TO CLD VIS AND WIND=



000
FTUS45 KSLC 220156 AAA
TAFENV
TAF AMD
KENV 220156Z 2202/2224 02009KT P6SM FEW120
     FM220600 VRB04KT P6SM SKC
     FM221700 14006KT P6SM SCT150
      AMD LTD TO CLD VIS AND WIND=



000
FTUS45 KSLC 212337
TAFPVU
TAF
KPVU 212337Z 2200/2224 31015G20KT P6SM SCT080 SCT120
     FM220100 31010KT P6SM FEW080 SCT120
     FM220400 VRB04KT P6SM SCT120
      AMD LTD TO CLD VIS AND WIND=



000
FTUS45 KSLC 212337
TAFBCE
TAF
KBCE 212337Z 2200/2224 24010KT P6SM FEW060 SCT150=



000
FTUS45 KSLC 212337
TAFCDC
TAF
KCDC 212337Z 2200/2224 20012KT P6SM BKN120
     FM220200 19007KT P6SM SCT120
     FM221900 22010KT P6SM SCT150=



000
FTUS45 KSLC 212337
TAFOGD
TAF
KOGD 212337Z 2200/2224 03006KT P6SM SCT100
     FM220500 16004KT P6SM SKC
     FM221700 VRB05KT P6SM SCT120=



000
FTUS45 KSLC 212337
TAFSLC
TAF
KSLC 212337Z 2200/2306 35010KT P6SM BKN070 OVC090
     FM220300 02004KT P6SM SCT100
     FM220600 15004KT P6SM SKC
     FM222000 34005KT P6SM SCT120
     FM230300 16006KT P6SM FEW120 SCT150=



000
FTUS45 KSLC 212337
TAFENV
TAF
KENV 212337Z 2200/2224 32011G18KT P6SM FEW090
     FM220300 32010KT P6SM SKC
     FM220600 VRB04KT P6SM SKC
     FM221700 14006KT P6SM SCT150
      AMD LTD TO CLD VIS AND WIND=



000
FTUS45 KSLC 212337
TAFSGU
TAF
KSGU 212337Z 2200/2224 29007KT P6SM BKN150
     FM220300 VRB04KT P6SM SKC
     FM222100 29005KT P6SM SCT200
      AMD LTD TO CLD VIS AND WIND=



000
FTUS45 KSLC 212337
TAFLGU
TAF
KLGU 212337Z 2200/2224 35010KT P6SM FEW060 BKN120
     FM220000 VRB04KT P6SM SCT120
     FM221800 24006KT P6SM BKN120=



000
FTUS45 KSLC 212112 AAA
TAFBCE
TAF AMD
KBCE 212112Z 2121/2218 24010KT P6SM SCT060
     FM220300 28005KT P6SM SKC=



000
FTUS45 KSLC 212111 AAA
TAFCDC
TAF AMD
KCDC 212111Z 2121/2218 20014G23KT P6SM SKC
     FM220100 19005KT P6SM SKC=



000
FTUS45 KSLC 212110 AAA
TAFPVU
TAF AMD
KPVU 212110Z 2121/2218 31015G27KT P6SM BKN070
     FM212300 31010KT P6SM SCT090
     FM220300 VRB04KT P6SM SKC
      AMD LTD TO CLD VIS AND WIND=



000
FTUS45 KSLC 212109 AAB
TAFOGD
TAF AMD
KOGD 212109Z 2121/2218 31010KT P6SM SCT070 OVC110
     FM220000 33006KT P6SM SCT100
     FM220500 16004KT P6SM SKC=



000
FTUS45 KSLC 212108 AAA
TAFENV
TAF AMD
KENV 212108Z 2121/2218 32011G20KT P6SM SKC
     FM220100 32010G16KT P6SM SKC
     FM220300 VRB04KT P6SM SKC
      AMD LTD TO CLD VIS AND WIND=



000
FTUS45 KSLC 212045 AAC
TAFSLC
TAF AMD
KSLC 212045Z 2121/2224 32010G16KT P6SM SCT070 BKN100
     FM220200 35010KT P6SM SCT100
     FM220900 15004KT P6SM SKC=



000
FTUS45 KSLC 212001 AAB
TAFSLC
TAF AMD
KSLC 212001Z 2120/2224 32010G16KT P6SM SCT060 BKN080
     FM220200 35010KT P6SM SCT080
     FM220900 15004KT P6SM SKC=



000
FTUS45 KSLC 212001 AAB
TAFSLC
TAF AMD
KSLC 212001Z 2120/2224 32010G16KT P6SM SCT060 BKN080
     FM220200 35010KT P6SM SCT080
     FM220900 15004KT P6SM SKC=



000
FTUS45 KSLC 211858 AAA
TAFLGU
TAF AMD
KLGU 211858Z 2119/2218 35010KT P6SM BKN080
     FM220000 VRB04KT P6SM SKC=



000
FTUS45 KSLC 211818 AAA
TAFOGD
TAF AMD
KOGD 211818Z 2118/2218 34012G20KT P6SM BKN070 OVC110
     FM220000 33006KT P6SM SCT100
     FM220500 16004KT P6SM SKC=



000
FTUS45 KSLC 211733
TAFLGU
TAF
KLGU 211733Z 2118/2218 35015G21KT P6SM SCT100 BKN150
     FM211900 30010G16KT P6SM SCT090
     FM220000 VRB04KT P6SM SKC=



000
FTUS45 KSLC 211733
TAFPVU
TAF
KPVU 211733Z 2118/2218 21008KT P6SM SCT070
     FM211900 34015G27KT P6SM BKN070
     FM212200 34010KT P6SM SCT090
     FM220300 VRB04KT P6SM SKC
      AMD LTD TO CLD VIS AND WIND=



000
FTUS45 KSLC 211733
TAFBCE
TAF
KBCE 211733Z 2118/2218 14008KT P6SM BKN050
     FM211900 24010G18KT P6SM SCT060
     FM220300 28005KT P6SM SKC=



000
FTUS45 KSLC 211733
TAFENV
TAF
KENV 211733Z 2118/2218 30017G25KT P6SM SKC
     FM220100 32010G16KT P6SM SKC
     FM220300 VRB04KT P6SM SKC
      AMD LTD TO CLD VIS AND WIND=



000
FTUS45 KSLC 211733
TAFCDC
TAF
KCDC 211733Z 2118/2218 22014G23KT P6SM SKC
     FM220100 19005KT P6SM SKC=



000
FTUS45 KSLC 211733
TAFSGU
TAF
KSGU 211733Z 2118/2218 VRB04KT P6SM SKC
     FM212100 24010KT P6SM SKC
     FM220300 VRB04KT P6SM SKC
      AMD LTD TO CLD VIS AND WIND=



000
FTUS45 KSLC 211733
TAFSLC
TAF
KSLC 211733Z 2118/2224 34010G16KT P6SM BKN080
     FM212000 32010KT P6SM SCT080
     FM220900 15004KT P6SM SKC=



000
FTUS45 KSLC 211733
TAFOGD
TAF
KOGD 211733Z 2118/2218 31007KT P6SM SCT080
     FM220000 33006KT P6SM SKC
     FM220500 16004KT P6SM SKC=



000
FTUS45 KSLC 211711 AAA
TAFBCE
TAF AMD
KBCE 211711Z 2117/2212 13005KT P6SM BKN050
     FM211900 24010G18KT P6SM SCT060
     FM220300 28005KT P6SM SKC=



000
FTUS45 KSLC 211647 AAA
TAFENV
TAF AMD
KENV 211647Z 2117/2212 30017G25KT P6SM SKC
     FM220100 32010G16KT P6SM SKC
     FM220300 VRB04KT P6SM SKC
      AMD LTD TO CLD VIS AND WIND=



000
FTUS45 KSLC 211645 AAA
TAFCDC
TAF AMD
KCDC 211645Z 2117/2212 22014G23KT P6SM SKC
     FM220100 19005KT P6SM SKC=



000
FTUS45 KSLC 211639 AAA
TAFPVU
TAF AMD
KPVU 211639Z 2117/2212 16010KT P6SM SCT070 BKN090
     FM211800 34015G30KT P6SM BKN070
     FM212100 34010KT P6SM SCT090
     FM220300 VRB04KT P6SM SCT060
      AMD LTD TO CLD VIS AND WIND=



000
FTUS45 KSLC 211635 AAC
TAFLGU
TAF AMD
KLGU 211635Z 2117/2212 35017G24KT P6SM BKN080
     FM212000 30010G16KT P6SM SCT090
     FM220000 VRB04KT P6SM SCT080=



000
FTUS45 KSLC 211635 AAC
TAFLGU
TAF AMD
KLGU 211635Z 2117/2212 35017G24KT P6SM BKN080
     FM212000 30010G16KT P6SM SCT090
     FM220000 VRB04KT P6SM SCT080=



000
FTUS45 KSLC 211604 AAD
TAFSLC
TAF AMD
KSLC 211604Z 2116/2218 17013G20KT P6SM SCT070 BKN100
     FM211625 34017G25KT P6SM VCSH SCT060 BKN070
     FM211800 34010KT P6SM SCT080
     FM220900 15004KT P6SM SKC=



000
FTUS45 KSLC 211604 AAD
TAFSLC
TAF AMD
KSLC 211604Z 2116/2218 17013G20KT P6SM SCT070 BKN100
     FM211625 34017G25KT P6SM VCSH SCT060 BKN070
     FM211800 34010KT P6SM SCT080
     FM220900 15004KT P6SM SKC=



000
FTUS45 KSLC 211604 AAD
TAFSLC
TAF AMD
KSLC 211604Z 2116/2218 17013G20KT P6SM SCT070 BKN100
     FM211625 34017G25KT P6SM VCSH SCT060 BKN070
     FM211800 34010KT P6SM SCT080
     FM220900 15004KT P6SM SKC=



000
FTUS45 KSLC 211604 AAD
TAFSLC
TAF AMD
KSLC 211604Z 2116/2218 17013G20KT P6SM SCT070 BKN100
     FM211625 34017G25KT P6SM VCSH SCT060 BKN070
     FM211800 34010KT P6SM SCT080
     FM220900 15004KT P6SM SKC=



000
FTUS45 KSLC 211547 AAC
TAFOGD
TAF AMD
KOGD 211547Z 2116/2212 27010G18KT P6SM SCT090
     FM211700 27007KT P6SM SCT080
     FM220000 33006KT P6SM SCT060=



000
FTUS45 KSLC 211547 AAC
TAFOGD
TAF AMD
KOGD 211547Z 2116/2212 27010G18KT P6SM SCT090
     FM211700 27007KT P6SM SCT080
     FM220000 33006KT P6SM SCT060=



000
FTUS45 KSLC 211547 AAC
TAFOGD
TAF AMD
KOGD 211547Z 2116/2212 27010G18KT P6SM SCT090
     FM211700 27007KT P6SM SCT080
     FM220000 33006KT P6SM SCT060=



000
FTUS45 KSLC 211547 AAC
TAFOGD
TAF AMD
KOGD 211547Z 2116/2212 27010G18KT P6SM SCT090
     FM211700 27007KT P6SM SCT080
     FM220000 33006KT P6SM SCT060=



000
FTUS45 KSLC 211536 AAB
TAFLGU
TAF AMD
KLGU 211536Z 2116/2212 29014G24KT P6SM SCT090
     FM212000 30010G16KT P6SM SCT090
     FM220000 VRB04KT P6SM SCT080=



000
FTUS45 KSLC 211536 AAB
TAFLGU
TAF AMD
KLGU 211536Z 2116/2212 29014G24KT P6SM SCT090
     FM212000 30010G16KT P6SM SCT090
     FM220000 VRB04KT P6SM SCT080=



000
FTUS45 KSLC 211536 AAB
TAFLGU
TAF AMD
KLGU 211536Z 2116/2212 29014G24KT P6SM SCT090
     FM212000 30010G16KT P6SM SCT090
     FM220000 VRB04KT P6SM SCT080=



000
FTUS45 KSLC 211536 AAB
TAFLGU
TAF AMD
KLGU 211536Z 2116/2212 29014G24KT P6SM SCT090
     FM212000 30010G16KT P6SM SCT090
     FM220000 VRB04KT P6SM SCT080=



000
FTUS45 KSLC 211447 AAC
TAFSLC
TAF AMD
KSLC 211447Z 2115/2218 17013G20KT P6SM SCT070 BKN100
     FM211700 34010G18KT P6SM VCSH SCT060 BKN070
     FM211800 34008KT P6SM SCT080
     FM220900 15004KT P6SM SKC=



000
FTUS45 KSLC 211447 AAC
TAFSLC
TAF AMD
KSLC 211447Z 2115/2218 17013G20KT P6SM SCT070 BKN100
     FM211700 34010G18KT P6SM VCSH SCT060 BKN070
     FM211800 34008KT P6SM SCT080
     FM220900 15004KT P6SM SKC=



000
FTUS45 KSLC 211420 AAB
TAFOGD
TAF AMD
KOGD 211420Z 2114/2212 18015G25KT P6SM VCSH SCT100
     FM211500 22010G18KT P6SM VCSH SCT060 BKN090
     FM211700 27007KT P6SM SCT080
     FM220000 33006KT P6SM SCT060=



000
FTUS45 KSLC 211320 AAA
TAFOGD
TAF AMD
KOGD 211320Z 2113/2212 18015G25KT P6SM VCSH SCT100
     FM211400 22010G18KT P6SM -RA SCT060 BKN090
     FM211700 22007KT P6SM VCSH SCT030 BKN060
     FM220000 33006KT P6SM SCT060=



000
FTUS45 KSLC 211320 AAA
TAFOGD
TAF AMD
KOGD 211320Z 2113/2212 18015G25KT P6SM VCSH SCT100
     FM211400 22010G18KT P6SM -RA SCT060 BKN090
     FM211700 22007KT P6SM VCSH SCT030 BKN060
     FM220000 33006KT P6SM SCT060=



000
FTUS45 KSLC 211226 AAA
TAFLGU
TAF AMD
KLGU 211226Z 2112/2212 33008KT P6SM -SHRA SCT030 BKN060
      TEMPO 2112/2114 VRB10G20KT 6SM -TSRA SCT030 BKN060CB
     FM211800 30010KT P6SM VCSH SCT040 BKN080
     FM220000 VRB04KT P6SM SCT080=



000
FTUS45 KSLC 211226 AAA
TAFLGU
TAF AMD
KLGU 211226Z 2112/2212 33008KT P6SM -SHRA SCT030 BKN060
      TEMPO 2112/2114 VRB10G20KT 6SM -TSRA SCT030 BKN060CB
     FM211800 30010KT P6SM VCSH SCT040 BKN080
     FM220000 VRB04KT P6SM SCT080=



000
FTUS45 KSLC 211120
TAFLGU
TAF
KLGU 211120Z 2112/2212 33008KT P6SM -SHRA SCT030 BKN060
     FM211800 30010KT P6SM VCSH SCT040 BKN080
     FM220000 VRB04KT P6SM SCT080=



000
FTUS45 KSLC 211120
TAFLGU
TAF
KLGU 211120Z 2112/2212 33008KT P6SM -SHRA SCT030 BKN060
     FM211800 30010KT P6SM VCSH SCT040 BKN080
     FM220000 VRB04KT P6SM SCT080=



000
FTUS45 KSLC 211120
TAFBCE
TAF
KBCE 211120Z 2112/2212 27005KT P6SM SCT120
     FM211700 24010G18KT P6SM SCT060 BKN120
     FM220300 28005KT P6SM SCT150=



000
FTUS45 KSLC 211120
TAFPVU
TAF
KPVU 211120Z 2112/2212 16010KT P6SM VCSH SCT070 BKN090
     FM211600 34010G18KT P6SM -SHRA SCT030 BKN060
     FM212100 34010KT P6SM VCSH SCT030 BKN060
     FM220300 VRB04KT P6SM SCT060
      AMD LTD TO CLD VIS AND WIND=



000
FTUS45 KSLC 211120
TAFOGD
TAF
KOGD 211120Z 2112/2212 16010KT P6SM VCSH SCT060 BKN100
     FM211400 29010G18KT P6SM -RA SCT030 BKN050
     FM211700 33007KT P6SM VCSH SCT030 BKN060
     FM220000 33006KT P6SM SCT060=



000
FTUS45 KSLC 211120
TAFSLC
TAF
KSLC 211120Z 2112/2218 15011KT P6SM VCSH SCT070 BKN100
     FM211500 34010G18KT P6SM -SHRA SCT030 BKN050
     FM211800 34008KT P6SM VCSH SCT030 BKN080
     FM220000 33006KT P6SM SCT080
     FM220900 15004KT P6SM SKC=



000
FTUS45 KSLC 211120
TAFCDC
TAF
KCDC 211120Z 2112/2212 19007KT P6SM SCT120
     FM211700 22010G20KT P6SM SCT120 BKN150
     FM220300 VRB04KT P6SM SCT150=



000
FTUS45 KSLC 211120
TAFLGU
TAF
KLGU 211120Z 2112/2212 33008KT P6SM -SHRA SCT030 BKN060
     FM211800 30010KT P6SM VCSH SCT040 BKN080
     FM220000 VRB04KT P6SM SCT080=



000
FTUS45 KSLC 211120
TAFENV
TAF
KENV 211120Z 2112/2212 16008KT P6SM SCT150
     FM211300 29015G25KT P6SM VCSH SCT080 BKN120
     FM211500 31010G18KT P6SM SCT120
     FM220300 VRB04KT P6SM SKC
      AMD LTD TO CLD VIS AND WIND=



000
FTUS45 KSLC 211120
TAFOGD
TAF
KOGD 211120Z 2112/2212 16010KT P6SM VCSH SCT060 BKN100
     FM211400 29010G18KT P6SM -RA SCT030 BKN050
     FM211700 33007KT P6SM VCSH SCT030 BKN060
     FM220000 33006KT P6SM SCT060=



000
FTUS45 KSLC 211120
TAFSLC
TAF
KSLC 211120Z 2112/2218 15011KT P6SM VCSH SCT070 BKN100
     FM211500 34010G18KT P6SM -SHRA SCT030 BKN050
     FM211800 34008KT P6SM VCSH SCT030 BKN080
     FM220000 33006KT P6SM SCT080
     FM220900 15004KT P6SM SKC=



000
FTUS45 KSLC 211120
TAFBCE
TAF
KBCE 211120Z 2112/2212 27005KT P6SM SCT120
     FM211700 24010G18KT P6SM SCT060 BKN120
     FM220300 28005KT P6SM SCT150=



000
FTUS45 KSLC 211120
TAFBCE
TAF
KBCE 211120Z 2112/2212 27005KT P6SM SCT120
     FM211700 24010G18KT P6SM SCT060 BKN120
     FM220300 28005KT P6SM SCT150=



000
FTUS45 KSLC 211120
TAFOGD
TAF
KOGD 211120Z 2112/2212 16010KT P6SM VCSH SCT060 BKN100
     FM211400 29010G18KT P6SM -RA SCT030 BKN050
     FM211700 33007KT P6SM VCSH SCT030 BKN060
     FM220000 33006KT P6SM SCT060=



000
FTUS45 KSLC 211120
TAFENV
TAF
KENV 211120Z 2112/2212 16008KT P6SM SCT150
     FM211300 29015G25KT P6SM VCSH SCT080 BKN120
     FM211500 31010G18KT P6SM SCT120
     FM220300 VRB04KT P6SM SKC
      AMD LTD TO CLD VIS AND WIND=



000
FTUS45 KSLC 211120
TAFPVU
TAF
KPVU 211120Z 2112/2212 16010KT P6SM VCSH SCT070 BKN090
     FM211600 34010G18KT P6SM -SHRA SCT030 BKN060
     FM212100 34010KT P6SM VCSH SCT030 BKN060
     FM220300 VRB04KT P6SM SCT060
      AMD LTD TO CLD VIS AND WIND=



000
FTUS45 KSLC 211120
TAFPVU
TAF
KPVU 211120Z 2112/2212 16010KT P6SM VCSH SCT070 BKN090
     FM211600 34010G18KT P6SM -SHRA SCT030 BKN060
     FM212100 34010KT P6SM VCSH SCT030 BKN060
     FM220300 VRB04KT P6SM SCT060
      AMD LTD TO CLD VIS AND WIND=



000
FTUS45 KSLC 211120
TAFSGU
TAF
KSGU 211120Z 2112/2212 VRB04KT P6SM SCT120
      AMD LTD TO CLD VIS AND WIND=



000
FTUS45 KSLC 211120
TAFSGU
TAF
KSGU 211120Z 2112/2212 VRB04KT P6SM SCT120
      AMD LTD TO CLD VIS AND WIND=



000
FTUS45 KSLC 211120
TAFCDC
TAF
KCDC 211120Z 2112/2212 19007KT P6SM SCT120
     FM211700 22010G20KT P6SM SCT120 BKN150
     FM220300 VRB04KT P6SM SCT150=



000
FTUS45 KSLC 211120
TAFSLC
TAF
KSLC 211120Z 2112/2218 15011KT P6SM VCSH SCT070 BKN100
     FM211500 34010G18KT P6SM -SHRA SCT030 BKN050
     FM211800 34008KT P6SM VCSH SCT030 BKN080
     FM220000 33006KT P6SM SCT080
     FM220900 15004KT P6SM SKC=



000
FTUS45 KSLC 211120
TAFPVU
TAF
KPVU 211120Z 2112/2212 16010KT P6SM VCSH SCT070 BKN090
     FM211600 34010G18KT P6SM -SHRA SCT030 BKN060
     FM212100 34010KT P6SM VCSH SCT030 BKN060
     FM220300 VRB04KT P6SM SCT060
      AMD LTD TO CLD VIS AND WIND=



000
FTUS45 KSLC 211120
TAFLGU
TAF
KLGU 211120Z 2112/2212 33008KT P6SM -SHRA SCT030 BKN060
     FM211800 30010KT P6SM VCSH SCT040 BKN080
     FM220000 VRB04KT P6SM SCT080=



000
FTUS45 KSLC 211120
TAFCDC
TAF
KCDC 211120Z 2112/2212 19007KT P6SM SCT120
     FM211700 22010G20KT P6SM SCT120 BKN150
     FM220300 VRB04KT P6SM SCT150=



000
FTUS45 KSLC 211120
TAFSGU
TAF
KSGU 211120Z 2112/2212 VRB04KT P6SM SCT120
      AMD LTD TO CLD VIS AND WIND=



000
FTUS45 KSLC 211120
TAFBCE
TAF
KBCE 211120Z 2112/2212 27005KT P6SM SCT120
     FM211700 24010G18KT P6SM SCT060 BKN120
     FM220300 28005KT P6SM SCT150=



000
FTUS45 KSLC 211120
TAFOGD
TAF
KOGD 211120Z 2112/2212 16010KT P6SM VCSH SCT060 BKN100
     FM211400 29010G18KT P6SM -RA SCT030 BKN050
     FM211700 33007KT P6SM VCSH SCT030 BKN060
     FM220000 33006KT P6SM SCT060=



000
FTUS45 KSLC 211120
TAFSLC
TAF
KSLC 211120Z 2112/2218 15011KT P6SM VCSH SCT070 BKN100
     FM211500 34010G18KT P6SM -SHRA SCT030 BKN050
     FM211800 34008KT P6SM VCSH SCT030 BKN080
     FM220000 33006KT P6SM SCT080
     FM220900 15004KT P6SM SKC=



000
FTUS45 KSLC 211120
TAFCDC
TAF
KCDC 211120Z 2112/2212 19007KT P6SM SCT120
     FM211700 22010G20KT P6SM SCT120 BKN150
     FM220300 VRB04KT P6SM SCT150=



000
FTUS45 KSLC 211120
TAFSGU
TAF
KSGU 211120Z 2112/2212 VRB04KT P6SM SCT120
      AMD LTD TO CLD VIS AND WIND=



000
FTUS45 KSLC 211120
TAFENV
TAF
KENV 211120Z 2112/2212 16008KT P6SM SCT150
     FM211300 29015G25KT P6SM VCSH SCT080 BKN120
     FM211500 31010G18KT P6SM SCT120
     FM220300 VRB04KT P6SM SKC
      AMD LTD TO CLD VIS AND WIND=



000
FTUS45 KSLC 210905 AAD
TAFSLC
TAF AMD
KSLC 210905Z 2109/2212 15011KT P6SM VCSH SCT070 BKN100
     FM211600 34010G18KT P6SM -SHRA SCT030 BKN050
     FM211800 34008KT P6SM VCSH SCT030 BKN080
     FM220000 33006KT P6SM SCT080
     FM220900 15004KT P6SM SKC=



000
FTUS45 KSLC 210905 AAD
TAFSLC
TAF AMD
KSLC 210905Z 2109/2212 15011KT P6SM VCSH SCT070 BKN100
     FM211600 34010G18KT P6SM -SHRA SCT030 BKN050
     FM211800 34008KT P6SM VCSH SCT030 BKN080
     FM220000 33006KT P6SM SCT080
     FM220900 15004KT P6SM SKC=



000
FTUS45 KSLC 210734 AAC
TAFSLC
TAF AMD
KSLC 210734Z 2108/2212 15012G20KT P6SM VCSH SCT070 BKN090
     FM211600 34010G18KT P6SM -SHRA SCT030 BKN050
     FM211800 34008KT P6SM VCSH SCT030 BKN080
     FM220000 33006KT P6SM SCT080
     FM220900 15004KT P6SM SKC=



000
FTUS45 KSLC 210734 AAC
TAFSLC
TAF AMD
KSLC 210734Z 2108/2212 15012G20KT P6SM VCSH SCT070 BKN090
     FM211600 34010G18KT P6SM -SHRA SCT030 BKN050
     FM211800 34008KT P6SM VCSH SCT030 BKN080
     FM220000 33006KT P6SM SCT080
     FM220900 15004KT P6SM SKC=



000
FTUS45 KSLC 210654 AAB
TAFSLC
TAF AMD
KSLC 210654Z 2107/2212 16009KT P6SM VCSH SCT060 SCT120
     FM211000 15012G20KT P6SM VCSH SCT070 BKN090
     FM211600 34010G18KT P6SM -SHRA SCT030 BKN050
     FM211800 34008KT P6SM VCSH SCT030 BKN080
     FM220000 33006KT P6SM SCT080
     FM220900 15004KT P6SM SKC=



000
FTUS45 KSLC 210651 AAA
TAFPVU
TAF AMD
KPVU 210651Z 2107/2206 16010KT P6SM VCSH SCT070 BKN090
     FM211600 34010G18KT P6SM -SHRA SCT030 BKN060
     FM212100 34010KT P6SM VCSH SCT030 BKN060
     FM220300 VRB04KT P6SM SCT060
      AMD LTD TO CLD VIS AND WIND=



000
FTUS45 KSLC 210651 AAA
TAFPVU
TAF AMD
KPVU 210651Z 2107/2206 16010KT P6SM VCSH SCT070 BKN090
     FM211600 34010G18KT P6SM -SHRA SCT030 BKN060
     FM212100 34010KT P6SM VCSH SCT030 BKN060
     FM220300 VRB04KT P6SM SCT060
      AMD LTD TO CLD VIS AND WIND=



000
FTUS45 KSLC 210539
TAFLGU
TAF
KLGU 210539Z 2106/2206 VRB05KT P6SM SCT120
     FM210900 20006KT P6SM BKN080
     FM211400 27007KT P6SM -SHRA SCT040 BKN050
     FM211800 30010KT P6SM VCSH SCT040 BKN080
     FM220000 VRB04KT P6SM SCT080=



000
FTUS45 KSLC 210539
TAFSGU
TAF
KSGU 210539Z 2106/2206 10008KT P6SM SCT120
     FM211400 VRB04KT P6SM SCT120
      AMD LTD TO CLD VIS AND WIND=



000
FTUS45 KSLC 210539
TAFLGU
TAF
KLGU 210539Z 2106/2206 VRB05KT P6SM SCT120
     FM210900 20006KT P6SM BKN080
     FM211400 27007KT P6SM -SHRA SCT040 BKN050
     FM211800 30010KT P6SM VCSH SCT040 BKN080
     FM220000 VRB04KT P6SM SCT080=



000
FTUS45 KSLC 210539
TAFPVU
TAF
KPVU 210539Z 2106/2206 16010KT P6SM SCT120
     FM211000 14008KT P6SM VCSH SCT070 BKN090
     FM211600 34010G18KT P6SM -SHRA SCT030 BKN060
     FM212100 34010KT P6SM VCSH SCT030 BKN060
     FM220300 VRB04KT P6SM SCT060
      AMD LTD TO CLD VIS AND WIND=



000
FTUS45 KSLC 210539
TAFENV
TAF
KENV 210539Z 2106/2206 16008KT P6SM SCT150
     FM211200 29015G25KT P6SM VCSH SCT080 BKN120
     FM211500 31010G18KT P6SM SCT120
     FM220300 VRB04KT P6SM SKC
      AMD LTD TO CLD VIS AND WIND=



000
FTUS45 KSLC 210539
TAFPVU
TAF
KPVU 210539Z 2106/2206 16010KT P6SM SCT120
     FM211000 14008KT P6SM VCSH SCT070 BKN090
     FM211600 34010G18KT P6SM -SHRA SCT030 BKN060
     FM212100 34010KT P6SM VCSH SCT030 BKN060
     FM220300 VRB04KT P6SM SCT060
      AMD LTD TO CLD VIS AND WIND=



000
FTUS45 KSLC 210539
TAFCDC
TAF
KCDC 210539Z 2106/2206 VRB04KT P6SM SCT120
     FM211700 22010G20KT P6SM SCT120 BKN150
     FM220300 VRB04KT P6SM SCT150=



000
FTUS45 KSLC 210539
TAFOGD
TAF
KOGD 210539Z 2106/2206 16010KT P6SM SCT120
     FM211400 29010G18KT P6SM -RA SCT030 BKN050
     FM211700 33007KT P6SM VCSH SCT030 BKN060
     FM220000 33006KT P6SM SCT060=



000
FTUS45 KSLC 210539
TAFCDC
TAF
KCDC 210539Z 2106/2206 VRB04KT P6SM SCT120
     FM211700 22010G20KT P6SM SCT120 BKN150
     FM220300 VRB04KT P6SM SCT150=



000
FTUS45 KSLC 210539
TAFOGD
TAF
KOGD 210539Z 2106/2206 16010KT P6SM SCT120
     FM211400 29010G18KT P6SM -RA SCT030 BKN050
     FM211700 33007KT P6SM VCSH SCT030 BKN060
     FM220000 33006KT P6SM SCT060=



000
FTUS45 KSLC 210539
TAFSLC
TAF
KSLC 210539Z 2106/2212 16009KT P6SM SCT120
     FM211000 15012G20KT P6SM SCT070 BKN090
     FM211600 34010G18KT P6SM -SHRA SCT030 BKN050
     FM211800 34008KT P6SM VCSH SCT030 BKN080
     FM220000 33006KT P6SM SCT080
     FM220900 15004KT P6SM SKC=



000
FTUS45 KSLC 210539
TAFENV
TAF
KENV 210539Z 2106/2206 16008KT P6SM SCT150
     FM211200 29015G25KT P6SM VCSH SCT080 BKN120
     FM211500 31010G18KT P6SM SCT120
     FM220300 VRB04KT P6SM SKC
      AMD LTD TO CLD VIS AND WIND=



000
FTUS45 KSLC 210539
TAFBCE
TAF
KBCE 210539Z 2106/2206 27005KT P6SM SCT120
     FM211700 24010G18KT P6SM SCT060 BKN120
     FM220300 28005KT P6SM SCT150=



000
FTUS45 KSLC 210539
TAFSLC
TAF
KSLC 210539Z 2106/2212 16009KT P6SM SCT120
     FM211000 15012G20KT P6SM SCT070 BKN090
     FM211600 34010G18KT P6SM -SHRA SCT030 BKN050
     FM211800 34008KT P6SM VCSH SCT030 BKN080
     FM220000 33006KT P6SM SCT080
     FM220900 15004KT P6SM SKC=



000
FTUS45 KSLC 210539
TAFBCE
TAF
KBCE 210539Z 2106/2206 27005KT P6SM SCT120
     FM211700 24010G18KT P6SM SCT060 BKN120
     FM220300 28005KT P6SM SCT150=



000
FTUS45 KSLC 210539
TAFSGU
TAF
KSGU 210539Z 2106/2206 10008KT P6SM SCT120
     FM211400 VRB04KT P6SM SCT120
      AMD LTD TO CLD VIS AND WIND=



000
FTUS45 KSLC 210319 AAB
TAFSLC
TAF AMD
KSLC 210319Z 2103/2206 16009KT P6SM SCT120
     FM210700 15012G20KT P6SM SCT070 BKN090
     FM211500 34010G18KT P6SM -SHRA SCT030 BKN050
     FM211800 34008KT P6SM VCSH BKN050=



000
FTUS45 KSLC 210319 AAB
TAFSLC
TAF AMD
KSLC 210319Z 2103/2206 16009KT P6SM SCT120
     FM210700 15012G20KT P6SM SCT070 BKN090
     FM211500 34010G18KT P6SM -SHRA SCT030 BKN050
     FM211800 34008KT P6SM VCSH BKN050=



000
FTUS45 KSLC 210319 AAB
TAFSLC
TAF AMD
KSLC 210319Z 2103/2206 16009KT P6SM SCT120
     FM210700 15012G20KT P6SM SCT070 BKN090
     FM211500 34010G18KT P6SM -SHRA SCT030 BKN050
     FM211800 34008KT P6SM VCSH BKN050=



000
FTUS45 KSLC 210319 AAB
TAFSLC
TAF AMD
KSLC 210319Z 2103/2206 16009KT P6SM SCT120
     FM210700 15012G20KT P6SM SCT070 BKN090
     FM211500 34010G18KT P6SM -SHRA SCT030 BKN050
     FM211800 34008KT P6SM VCSH BKN050=



000
FTUS45 KSLC 210201 AAA
TAFCDC
TAF AMD
KCDC 210201Z 2102/2124 16007KT P6SM VCSH FEW070 BKN110
     FM210300 VRB04KT P6SM SCT120
     FM211700 22010G20KT P6SM SCT120 BKN150=



000
FTUS45 KSLC 210201 AAA
TAFCDC
TAF AMD
KCDC 210201Z 2102/2124 16007KT P6SM VCSH FEW070 BKN110
     FM210300 VRB04KT P6SM SCT120
     FM211700 22010G20KT P6SM SCT120 BKN150=



000
FTUS45 KSLC 210201 AAA
TAFCDC
TAF AMD
KCDC 210201Z 2102/2124 16007KT P6SM VCSH FEW070 BKN110
     FM210300 VRB04KT P6SM SCT120
     FM211700 22010G20KT P6SM SCT120 BKN150=



000
FTUS45 KSLC 202329
TAFOGD
TAF
KOGD 202329Z 2100/2124 22007KT P6SM SKC
     FM210800 16012G18KT P6SM SCT120
     FM211400 29010G18KT P6SM -RA SCT030 BKN050
     FM211700 33007KT P6SM VCSH BKN050=



000
FTUS45 KSLC 202329
TAFLGU
TAF
KLGU 202329Z 2100/2124 VRB05KT P6SM SCT120
     FM210700 20006KT P6SM BKN080
     FM211400 27007KT P6SM -SHRA SCT040 BKN050
     FM211800 30010KT P6SM VCSH SCT040 BKN050=



000
FTUS45 KSLC 202329
TAFENV
TAF
KENV 202329Z 2100/2124 16008KT P6SM SCT150
     FM211100 29015G25KT P6SM VCSH SCT080 BKN120
     FM211500 31010G18KT P6SM SCT120
      AMD LTD TO CLD VIS AND WIND=



000
FTUS45 KSLC 202329
TAFSGU
TAF
KSGU 202329Z 2100/2124 VRB05KT P6SM SCT120
      AMD LTD TO CLD VIS AND WIND=



000
FTUS45 KSLC 202329
TAFBCE
TAF
KBCE 202329Z 2100/2124 16011KT P6SM VCSH SCT070 SCT120
     FM210300 17005KT P6SM SCT120
     FM211700 24010G18KT P6SM SCT060 BKN120=



000
FTUS45 KSLC 202329
TAFSLC
TAF
KSLC 202329Z 2100/2206 19010KT P6SM FEW090 FEW120
     FM210300 16009KT P6SM SCT120
     FM210700 15012G20KT P6SM SCT070 BKN090
     FM211500 34010G18KT P6SM -RA SCT030 BKN050
     FM211800 34008KT P6SM VCSH BKN050=



000
FTUS45 KSLC 202329
TAFPVU
TAF
KPVU 202329Z 2100/2124 VRB04KT P6SM SCT120
     FM210300 13006KT P6SM SCT120
     FM210600 14008KT P6SM VCSH SCT070 BKN090
     FM211600 34010G18KT P6SM -SHRA SCT030 BKN060
     FM212100 34010KT P6SM VCSH SCT030 BKN060
      AMD LTD TO CLD VIS AND WIND=



000
FTUS45 KSLC 202329
TAFCDC
TAF
KCDC 202329Z 2100/2124 21010G20KT P6SM VCSH FEW070 BKN110
     FM210300 VRB04KT P6SM SCT120
     FM211700 22010G20KT P6SM SCT120 BKN150=



000
FTUS45 KSLC 202329
TAFPVU
TAF
KPVU 202329Z 2100/2124 VRB04KT P6SM SCT120
     FM210300 13006KT P6SM SCT120
     FM210600 14008KT P6SM VCSH SCT070 BKN090
     FM211600 34010G18KT P6SM -SHRA SCT030 BKN060
     FM212100 34010KT P6SM VCSH SCT030 BKN060
      AMD LTD TO CLD VIS AND WIND=



000
FTUS45 KSLC 202329
TAFLGU
TAF
KLGU 202329Z 2100/2124 VRB05KT P6SM SCT120
     FM210700 20006KT P6SM BKN080
     FM211400 27007KT P6SM -SHRA SCT040 BKN050
     FM211800 30010KT P6SM VCSH SCT040 BKN050=



000
FTUS45 KSLC 202329
TAFOGD
TAF
KOGD 202329Z 2100/2124 22007KT P6SM SKC
     FM210800 16012G18KT P6SM SCT120
     FM211400 29010G18KT P6SM -RA SCT030 BKN050
     FM211700 33007KT P6SM VCSH BKN050=



000
FTUS45 KSLC 202329
TAFSLC
TAF
KSLC 202329Z 2100/2206 19010KT P6SM FEW090 FEW120
     FM210300 16009KT P6SM SCT120
     FM210700 15012G20KT P6SM SCT070 BKN090
     FM211500 34010G18KT P6SM -RA SCT030 BKN050
     FM211800 34008KT P6SM VCSH BKN050=



000
FTUS45 KSLC 202329
TAFENV
TAF
KENV 202329Z 2100/2124 16008KT P6SM SCT150
     FM211100 29015G25KT P6SM VCSH SCT080 BKN120
     FM211500 31010G18KT P6SM SCT120
      AMD LTD TO CLD VIS AND WIND=



000
FTUS45 KSLC 202329
TAFSGU
TAF
KSGU 202329Z 2100/2124 VRB05KT P6SM SCT120
      AMD LTD TO CLD VIS AND WIND=



000
FTUS45 KSLC 202329
TAFCDC
TAF
KCDC 202329Z 2100/2124 21010G20KT P6SM VCSH FEW070 BKN110
     FM210300 VRB04KT P6SM SCT120
     FM211700 22010G20KT P6SM SCT120 BKN150=



000
FTUS45 KSLC 202329
TAFBCE
TAF
KBCE 202329Z 2100/2124 16011KT P6SM VCSH SCT070 SCT120
     FM210300 17005KT P6SM SCT120
     FM211700 24010G18KT P6SM SCT060 BKN120=



000
FTUS45 KSLC 202252 AAC
TAFSLC
TAF AMD
KSLC 202252Z 2023/2124 19010KT P6SM FEW090 FEW120
     FM210300 16009KT P6SM SCT120
     FM210700 15012G20KT P6SM SCT070 BKN090
     FM211500 34010G18KT 6SM -RA SCT030 BKN050
     FM211800 34008KT P6SM VCSH BKN050=



000
FTUS45 KSLC 202252 AAC
TAFSLC
TAF AMD
KSLC 202252Z 2023/2124 19010KT P6SM FEW090 FEW120
     FM210300 16009KT P6SM SCT120
     FM210700 15012G20KT P6SM SCT070 BKN090
     FM211500 34010G18KT 6SM -RA SCT030 BKN050
     FM211800 34008KT P6SM VCSH BKN050=



000
FTUS45 KSLC 202252 AAC
TAFSLC
TAF AMD
KSLC 202252Z 2023/2124 19010KT P6SM FEW090 FEW120
     FM210300 16009KT P6SM SCT120
     FM210700 15012G20KT P6SM SCT070 BKN090
     FM211500 34010G18KT 6SM -RA SCT030 BKN050
     FM211800 34008KT P6SM VCSH BKN050=



000
FTUS45 KSLC 202252 AAC
TAFSLC
TAF AMD
KSLC 202252Z 2023/2124 19010KT P6SM FEW090 FEW120
     FM210300 16009KT P6SM SCT120
     FM210700 15012G20KT P6SM SCT070 BKN090
     FM211500 34010G18KT 6SM -RA SCT030 BKN050
     FM211800 34008KT P6SM VCSH BKN050=



000
FTUS45 KSLC 202135 AAB
TAFSLC
TAF AMD
KSLC 202135Z 2022/2124 19012KT P6SM FEW090 FEW120
     FM202230 30007KT P6SM FEW090 FEW120
     FM210300 16009KT P6SM SCT120
     FM210700 15012G20KT P6SM SCT070 BKN090
     FM211500 34010G18KT 6SM -RA SCT030 BKN050
     FM211800 34008KT P6SM VCSH BKN050=



000
FTUS45 KSLC 202135 AAB
TAFSLC
TAF AMD
KSLC 202135Z 2022/2124 19012KT P6SM FEW090 FEW120
     FM202230 30007KT P6SM FEW090 FEW120
     FM210300 16009KT P6SM SCT120
     FM210700 15012G20KT P6SM SCT070 BKN090
     FM211500 34010G18KT 6SM -RA SCT030 BKN050
     FM211800 34008KT P6SM VCSH BKN050=



000
FTUS45 KSLC 202135 AAB
TAFSLC
TAF AMD
KSLC 202135Z 2022/2124 19012KT P6SM FEW090 FEW120
     FM202230 30007KT P6SM FEW090 FEW120
     FM210300 16009KT P6SM SCT120
     FM210700 15012G20KT P6SM SCT070 BKN090
     FM211500 34010G18KT 6SM -RA SCT030 BKN050
     FM211800 34008KT P6SM VCSH BKN050=



000
FTUS45 KSLC 202135 AAB
TAFSLC
TAF AMD
KSLC 202135Z 2022/2124 19012KT P6SM FEW090 FEW120
     FM202230 30007KT P6SM FEW090 FEW120
     FM210300 16009KT P6SM SCT120
     FM210700 15012G20KT P6SM SCT070 BKN090
     FM211500 34010G18KT 6SM -RA SCT030 BKN050
     FM211800 34008KT P6SM VCSH BKN050=



000
FTUS45 KSLC 202134 AAA
TAFBCE
TAF AMD
KBCE 202134Z 2022/2118 16011KT P6SM VCSH SCT070 SCT120
     FM210300 17005KT P6SM SCT120
     FM211700 24010G18KT P6SM SCT060 BKN120=



000
FTUS45 KSLC 202134 AAA
TAFBCE
TAF AMD
KBCE 202134Z 2022/2118 16011KT P6SM VCSH SCT070 SCT120
     FM210300 17005KT P6SM SCT120
     FM211700 24010G18KT P6SM SCT060 BKN120=



000
FTUS45 KSLC 202134 AAA
TAFCDC
TAF AMD
KCDC 202134Z 2022/2118 21010G20KT P6SM VCSH FEW070 BKN110
     FM210300 VRB04KT P6SM SCT120
     FM211700 22010G20KT P6SM SCT120 BKN150=



000
FTUS45 KSLC 202134 AAA
TAFCDC
TAF AMD
KCDC 202134Z 2022/2118 21010G20KT P6SM VCSH FEW070 BKN110
     FM210300 VRB04KT P6SM SCT120
     FM211700 22010G20KT P6SM SCT120 BKN150=



000
FTUS45 KSLC 202134 AAA
TAFCDC
TAF AMD
KCDC 202134Z 2022/2118 21010G20KT P6SM VCSH FEW070 BKN110
     FM210300 VRB04KT P6SM SCT120
     FM211700 22010G20KT P6SM SCT120 BKN150=



000
FTUS45 KSLC 202134 AAA
TAFBCE
TAF AMD
KBCE 202134Z 2022/2118 16011KT P6SM VCSH SCT070 SCT120
     FM210300 17005KT P6SM SCT120
     FM211700 24010G18KT P6SM SCT060 BKN120=



000
FTUS45 KSLC 202134 AAA
TAFBCE
TAF AMD
KBCE 202134Z 2022/2118 16011KT P6SM VCSH SCT070 SCT120
     FM210300 17005KT P6SM SCT120
     FM211700 24010G18KT P6SM SCT060 BKN120=



000
FTUS45 KSLC 202059 AAA
TAFSLC
TAF AMD
KSLC 202059Z 2021/2124 19012KT P6SM FEW090 FEW120
     FM202130 30007KT P6SM FEW090 FEW120
     FM210300 16009KT P6SM SCT120
     FM210700 15012G20KT P6SM SCT070 BKN090
     FM211500 34010G18KT 6SM -RA SCT030 BKN050
     FM211800 34008KT P6SM VCSH BKN050=



000
FTUS45 KSLC 202059 AAA
TAFSLC
TAF AMD
KSLC 202059Z 2021/2124 19012KT P6SM FEW090 FEW120
     FM202130 30007KT P6SM FEW090 FEW120
     FM210300 16009KT P6SM SCT120
     FM210700 15012G20KT P6SM SCT070 BKN090
     FM211500 34010G18KT 6SM -RA SCT030 BKN050
     FM211800 34008KT P6SM VCSH BKN050=



    US Dept of Commerce
    National Oceanic and Atmospheric Administration
    National Weather Service
    1325 East West Highway
    Silver Spring, MD 20910
    Page Author: NWS Internet Services Team
Disclaimer
Information Quality
Credits
Glossary
Privacy Policy
Freedom of Information Act (FOIA)
About Us
Career Opportunities